createdAt,value
2018-02-04T00:00:29.123Z,3.70
2018-02-04T00:02:55.412Z,3.70
2018-02-04T00:05:21.695Z,3.60
2018-02-04T00:07:47.985Z,3.60
2018-02-04T00:10:14.868Z,3.60
2018-02-04T00:12:41.453Z,3.60
2018-02-04T00:15:07.748Z,3.60
2018-02-04T00:17:33.974Z,3.60
2018-02-04T00:20:00.215Z,3.50
2018-02-04T00:22:37.672Z,3.60
2018-02-04T00:25:04.373Z,3.70
2018-02-04T00:27:30.619Z,3.70
2018-02-04T00:29:56.886Z,3.70
2018-02-04T00:32:23.289Z,3.60
2018-02-04T00:34:49.544Z,3.70
2018-02-04T00:37:16.209Z,3.70
2018-02-04T00:39:42.561Z,3.80
2018-02-04T00:42:08.855Z,3.70
2018-02-04T00:44:35.521Z,3.80
2018-02-04T00:47:01.745Z,3.70
2018-02-04T00:49:27.988Z,3.80
2018-02-04T00:51:54.223Z,3.90
2018-02-04T00:54:20.448Z,3.80
2018-02-04T00:56:46.690Z,3.90
2018-02-04T00:59:12.939Z,3.90
2018-02-04T01:01:39.618Z,3.80
2018-02-04T01:04:05.848Z,3.80
2018-02-04T01:06:32.130Z,3.80
2018-02-04T01:08:58.346Z,3.80
2018-02-04T01:11:24.576Z,3.90
2018-02-04T01:13:50.967Z,3.90
2018-02-04T01:16:17.243Z,3.90
2018-02-04T01:18:43.455Z,3.90
2018-02-04T01:21:10.800Z,3.90
2018-02-04T01:23:36.997Z,3.90
2018-02-04T01:26:03.257Z,3.90
2018-02-04T01:28:29.527Z,3.80
2018-02-04T01:30:56.153Z,3.90
2018-02-04T01:33:22.732Z,4.00
2018-02-04T01:35:48.948Z,4.00
2018-02-04T01:38:15.141Z,3.70
2018-02-04T01:40:41.828Z,4.00
2018-02-04T01:43:08.064Z,4.00
2018-02-04T01:45:34.350Z,4.00
2018-02-04T01:48:07.697Z,4.00
2018-02-04T01:50:33.982Z,4.10
2018-02-04T01:53:00.210Z,4.00
2018-02-04T01:55:27.322Z,4.10
2018-02-04T01:57:53.635Z,4.10
2018-02-04T02:00:19.878Z,4.00
2018-02-04T02:02:46.160Z,4.00
2018-02-04T02:05:12.378Z,3.90
2018-02-04T02:07:38.637Z,3.80
2018-02-04T02:10:04.923Z,3.70
2018-02-04T02:12:31.179Z,3.90
2018-02-04T02:14:57.412Z,4.00
2018-02-04T02:17:24.088Z,3.90
2018-02-04T02:19:50.362Z,3.80
2018-02-04T02:22:16.623Z,3.70
2018-02-04T02:24:42.842Z,3.60
2018-02-04T02:27:09.060Z,3.60
2018-02-04T02:29:35.265Z,3.50
2018-02-04T02:32:01.882Z,3.40
2018-02-04T02:34:28.473Z,3.10
2018-02-04T02:36:54.698Z,3.10
2018-02-04T02:39:21.014Z,3.20
2018-02-04T02:41:47.253Z,3.20
2018-02-04T02:44:13.437Z,3.10
2018-02-04T02:46:40.032Z,2.50
2018-02-04T02:49:06.346Z,2.60
2018-02-04T02:51:32.606Z,2.50
2018-02-04T02:53:58.896Z,2.60
2018-02-04T02:56:25.199Z,2.70
2018-02-04T02:58:51.773Z,2.50
2018-02-04T03:01:17.989Z,2.60
2018-02-04T03:03:44.233Z,2.70
2018-02-04T03:06:10.450Z,3.00
2018-02-04T03:08:36.669Z,3.10
2018-02-04T03:11:02.892Z,3.00
2018-02-04T03:13:29.102Z,2.80
2018-02-04T03:15:55.288Z,2.60
2018-02-04T03:18:21.517Z,2.80
2018-02-04T03:20:47.720Z,2.90
2018-02-04T03:23:13.971Z,3.20
2018-02-04T03:25:40.316Z,3.00
2018-02-04T03:28:06.528Z,2.70
2018-02-04T03:30:32.760Z,2.70
2018-02-04T03:32:58.994Z,2.50
2018-02-04T03:35:25.204Z,2.60
2018-02-04T03:37:51.440Z,2.70
2018-02-04T03:40:17.631Z,2.80
2018-02-04T03:42:43.881Z,2.90
2018-02-04T03:45:10.158Z,2.90
2018-02-04T03:47:36.764Z,2.90
2018-02-04T03:50:03.055Z,2.90
2018-02-04T03:52:29.301Z,2.80
2018-02-04T03:54:55.512Z,2.60
2018-02-04T03:57:21.753Z,2.40
2018-02-04T03:59:48.040Z,2.40
2018-02-04T04:02:14.652Z,2.50
2018-02-04T04:04:40.855Z,2.50
2018-02-04T04:07:07.352Z,2.50
2018-02-04T04:09:33.565Z,2.50
2018-02-04T04:11:59.898Z,2.40
2018-02-04T04:14:26.491Z,2.40
2018-02-04T04:16:52.780Z,2.40
2018-02-04T04:19:19.040Z,2.20
2018-02-04T04:21:45.283Z,2.20
2018-02-04T04:24:11.516Z,2.30
2018-02-04T04:26:37.764Z,2.20
2018-02-04T04:29:04.011Z,2.20
2018-02-04T04:31:30.600Z,2.10
2018-02-04T04:33:57.778Z,2.10
2018-02-04T04:36:24.001Z,2.10
2018-02-04T04:38:50.227Z,2.10
2018-02-04T04:41:16.401Z,2.00
2018-02-04T04:43:43.169Z,2.00
2018-02-04T04:46:09.423Z,2.00
2018-02-04T04:48:35.634Z,2.00
2018-02-04T04:51:01.868Z,1.90
2018-02-04T04:53:28.082Z,1.90
2018-02-04T04:55:54.333Z,1.80
2018-02-04T04:58:20.901Z,1.80
2018-02-04T05:00:47.537Z,1.90
2018-02-04T05:03:15.031Z,1.90
2018-02-04T05:05:41.326Z,1.90
2018-02-04T05:08:07.888Z,1.70
2018-02-04T05:10:34.098Z,1.70
2018-02-04T05:13:00.374Z,1.70
2018-02-04T05:15:26.618Z,1.70
2018-02-04T05:17:52.894Z,1.70
2018-02-04T05:20:19.190Z,1.80
2018-02-04T05:22:46.161Z,1.70
2018-02-04T05:25:12.429Z,1.60
2018-02-04T05:27:38.758Z,1.40
2018-02-04T05:30:05.011Z,1.40
2018-02-04T05:32:31.313Z,1.40
2018-02-04T05:34:57.603Z,1.30
2018-02-04T05:37:24.442Z,1.30
2018-02-04T05:39:51.022Z,1.40
2018-02-04T05:42:17.268Z,1.40
2018-02-04T05:44:43.570Z,1.70
2018-02-04T05:47:09.812Z,1.90
2018-02-04T05:49:36.080Z,1.80
2018-02-04T05:52:02.793Z,1.80
2018-02-04T05:54:29.148Z,1.70
2018-02-04T05:56:55.484Z,2.00
2018-02-04T05:59:21.745Z,2.10
2018-02-04T06:01:47.974Z,2.20
2018-02-04T06:04:14.976Z,2.40
2018-02-04T06:06:41.579Z,2.30
2018-02-04T06:09:07.871Z,2.30
2018-02-04T06:11:34.112Z,2.40
2018-02-04T06:14:00.461Z,2.50
2018-02-04T06:16:26.689Z,2.50
2018-02-04T06:18:53.006Z,2.60
2018-02-04T06:21:19.228Z,2.50
2018-02-04T06:23:45.478Z,2.40
2018-02-04T06:26:11.786Z,2.10
2018-02-04T06:28:40.455Z,1.90
2018-02-04T06:31:06.780Z,1.90
2018-02-04T06:33:34.329Z,1.90
2018-02-04T06:36:00.592Z,1.90
2018-02-04T06:38:27.097Z,2.10
2018-02-04T06:40:53.754Z,1.90
2018-02-04T06:43:19.984Z,1.90
2018-02-04T06:45:46.304Z,1.90
2018-02-04T06:48:12.527Z,1.90
2018-02-04T06:50:38.806Z,1.90
2018-02-04T06:53:05.007Z,2.00
2018-02-04T06:55:31.261Z,2.20
2018-02-04T06:57:58.092Z,2.40
2018-02-04T07:00:24.347Z,2.50
2018-02-04T07:02:50.969Z,2.50
2018-02-04T07:05:17.210Z,2.50
2018-02-04T07:07:43.447Z,2.70
2018-02-04T07:10:09.737Z,2.60
2018-02-04T07:12:36.008Z,2.60
2018-02-04T07:15:02.281Z,2.70
2018-02-04T07:17:28.528Z,2.80
2018-02-04T07:19:54.744Z,2.80
2018-02-04T07:22:21.015Z,2.90
2018-02-04T07:24:47.248Z,2.90
2018-02-04T07:27:13.464Z,2.90
2018-02-04T07:29:39.765Z,3.00
2018-02-04T07:32:06.011Z,3.10
2018-02-04T07:34:32.272Z,3.10
2018-02-04T07:36:58.561Z,3.00
2018-02-04T07:39:24.815Z,2.80
2018-02-04T07:41:51.109Z,2.70
2018-02-04T07:44:17.326Z,2.90
2018-02-04T07:46:43.597Z,2.70
2018-02-04T07:49:09.825Z,2.60
2018-02-04T07:51:36.061Z,2.70
2018-02-04T07:54:02.321Z,2.90
2018-02-04T07:56:29.382Z,2.90
2018-02-04T07:58:55.625Z,3.00
2018-02-04T08:01:21.892Z,3.20
2018-02-04T08:03:48.179Z,3.20
2018-02-04T08:06:14.455Z,3.30
2018-02-04T08:08:40.717Z,3.20
2018-02-04T08:11:07.516Z,3.40
2018-02-04T08:13:33.748Z,3.60
2018-02-04T08:16:00.011Z,3.50
2018-02-04T08:18:26.226Z,3.30
2018-02-04T08:20:52.516Z,3.20
2018-02-04T08:23:18.748Z,3.30
2018-02-04T08:25:45.038Z,3.50
2018-02-04T08:28:11.379Z,3.40
2018-02-04T08:30:37.625Z,3.60
2018-02-04T08:33:03.897Z,3.90
2018-02-04T08:35:30.504Z,4.00
2018-02-04T08:37:56.756Z,4.00
2018-02-04T08:40:23.338Z,4.30
2018-02-04T08:42:49.581Z,4.30
2018-02-04T08:45:15.825Z,4.50
2018-02-04T08:47:42.061Z,4.10
2018-02-04T08:50:08.321Z,4.00
2018-02-04T08:52:34.935Z,4.40
2018-02-04T08:55:01.261Z,4.50
2018-02-04T08:57:27.493Z,4.30
2018-02-04T08:59:53.799Z,4.40
2018-02-04T09:02:20.102Z,4.50
2018-02-04T09:04:46.489Z,4.40
2018-02-04T09:07:12.688Z,4.60
2018-02-04T09:09:38.984Z,4.60
2018-02-04T09:12:05.233Z,4.90
2018-02-04T09:14:31.498Z,4.70
2018-02-04T09:16:57.788Z,4.80
2018-02-04T09:19:24.044Z,4.60
2018-02-04T09:21:50.286Z,4.50
2018-02-04T09:24:16.511Z,4.40
2018-02-04T09:26:42.860Z,4.10
2018-02-04T09:29:09.171Z,4.30
2018-02-04T09:31:35.389Z,4.50
2018-02-04T09:34:01.632Z,4.70
2018-02-04T09:36:27.829Z,4.60
2018-02-04T09:38:54.078Z,4.60
2018-02-04T09:41:20.317Z,4.70
2018-02-04T09:43:46.610Z,4.70
2018-02-04T09:46:12.833Z,4.80
2018-02-04T09:48:39.209Z,5.00
2018-02-04T09:51:05.508Z,4.80
2018-02-04T09:53:31.723Z,5.00
2018-02-04T09:55:58.900Z,5.10
2018-02-04T09:58:25.192Z,5.20
2018-02-04T10:00:51.434Z,5.20
2018-02-04T10:03:17.748Z,5.10
2018-02-04T10:05:43.984Z,5.40
2018-02-04T10:08:10.346Z,5.40
2018-02-04T10:10:36.594Z,5.40
2018-02-04T10:13:02.848Z,5.40
2018-02-04T10:15:29.153Z,5.30
2018-02-04T10:17:55.366Z,5.40
2018-02-04T10:20:21.607Z,5.50
2018-02-04T10:22:47.897Z,5.70
2018-02-04T10:25:14.136Z,5.50
2018-02-04T10:27:40.493Z,5.50
2018-02-04T10:30:06.749Z,5.30
2018-02-04T10:32:32.997Z,5.20
2018-02-04T10:34:59.264Z,5.30
2018-02-04T10:37:25.561Z,5.40
2018-02-04T10:39:51.822Z,5.60
2018-02-04T10:42:18.037Z,5.90
2018-02-04T10:44:44.288Z,6.00
2018-02-04T10:47:10.581Z,6.10
2018-02-04T10:49:36.828Z,6.00
2018-02-04T10:52:03.367Z,5.70
2018-02-04T10:54:29.607Z,5.80
2018-02-04T10:56:56.225Z,6.50
2018-02-04T10:59:22.507Z,6.50
2018-02-04T11:01:49.156Z,6.40
2018-02-04T11:04:15.398Z,6.40
2018-02-04T11:06:42.665Z,6.40
2018-02-04T11:09:08.978Z,7.30
2018-02-04T11:11:35.255Z,10.90
2018-02-04T11:14:01.869Z,17.40
2018-02-04T11:16:28.147Z,17.40
2018-02-04T11:18:54.379Z,19.70
2018-02-04T11:21:20.616Z,20.40
2018-02-04T11:23:46.883Z,22.20
2018-02-04T11:26:13.275Z,23.40
2018-02-04T11:28:39.580Z,24.60
2018-02-04T11:31:18.354Z,27.10
2018-02-04T11:33:44.580Z,27.10
2018-02-04T11:36:11.900Z,27.20
2018-02-04T11:38:38.204Z,28.30
2018-02-04T11:41:04.539Z,27.90
2018-02-04T11:43:30.739Z,28.00
2018-02-04T11:45:57.833Z,28.80
2018-02-04T11:48:24.138Z,28.00
2018-02-04T11:50:50.374Z,28.10
2018-02-04T11:53:17.107Z,28.60
2018-02-04T11:55:43.403Z,28.60
2018-02-04T11:58:09.683Z,27.80
2018-02-04T12:00:36.016Z,26.70
2018-02-04T12:03:02.698Z,20.70
2018-02-04T12:05:28.988Z,20.70
2018-02-04T12:07:55.237Z,18.40
2018-02-04T12:10:21.463Z,16.40
2018-02-04T12:12:47.685Z,15.00
2018-02-04T12:15:13.977Z,13.10
2018-02-04T12:17:40.270Z,11.30
2018-02-04T12:20:06.539Z,10.30
2018-02-04T12:22:33.575Z,9.40
2018-02-04T12:24:59.855Z,9.30
2018-02-04T12:27:26.090Z,9.00
2018-02-04T12:29:52.350Z,8.60
2018-02-04T12:32:18.552Z,8.00
2018-02-04T12:34:44.746Z,7.70
2018-02-04T12:37:11.359Z,7.80
2018-02-04T12:39:37.602Z,7.80
2018-02-04T12:42:04.196Z,7.80
2018-02-04T12:44:31.401Z,7.80
2018-02-04T12:46:57.686Z,7.70
2018-02-04T12:49:23.947Z,7.50
2018-02-04T12:51:50.623Z,7.80
2018-02-04T12:54:16.924Z,7.80
2018-02-04T12:56:43.173Z,7.60
2018-02-04T12:59:09.616Z,7.60
2018-02-04T13:01:35.854Z,7.60
2018-02-04T13:04:02.473Z,7.20
2018-02-04T13:06:28.722Z,7.10
2018-02-04T13:08:54.978Z,6.80
2018-02-04T13:11:21.260Z,6.90
2018-02-04T13:13:47.567Z,7.20
2018-02-04T13:16:14.438Z,7.20
2018-02-04T13:18:40.701Z,7.00
2018-02-04T13:21:06.976Z,6.70
2018-02-04T13:23:33.237Z,6.80
2018-02-04T13:25:59.479Z,7.10
2018-02-04T13:28:25.785Z,7.30
2018-02-04T13:30:52.372Z,7.10
2018-02-04T13:33:18.609Z,7.00
2018-02-04T13:35:45.230Z,6.90
2018-02-04T13:38:11.611Z,6.90
2018-02-04T13:40:37.876Z,7.00
2018-02-04T13:43:04.169Z,7.10
2018-02-04T13:45:30.456Z,7.10
2018-02-04T13:47:56.754Z,7.00
2018-02-04T13:50:23.335Z,6.90
2018-02-04T13:52:49.635Z,6.90
2018-02-04T13:55:15.890Z,7.00
2018-02-04T13:57:42.535Z,7.00
2018-02-04T14:00:09.202Z,6.70
2018-02-04T14:02:35.497Z,6.70
2018-02-04T14:05:02.128Z,6.90
2018-02-04T14:07:35.307Z,6.90
2018-02-04T14:10:01.574Z,7.00
2018-02-04T14:12:27.820Z,7.00
2018-02-04T14:14:54.810Z,7.20
2018-02-04T14:17:21.265Z,7.20
2018-02-04T14:19:47.508Z,7.50
2018-02-04T14:22:13.766Z,7.40
2018-02-04T14:24:40.086Z,7.50
2018-02-04T14:27:06.377Z,7.40
2018-02-04T14:29:33.070Z,7.40
2018-02-04T14:31:59.372Z,7.40
2018-02-04T14:34:25.705Z,7.50
2018-02-04T14:36:52.035Z,7.70
2018-02-04T14:39:18.336Z,7.70
2018-02-04T14:41:44.707Z,7.50
2018-02-04T14:44:11.009Z,7.50
2018-02-04T14:46:37.357Z,7.50
2018-02-04T14:49:03.626Z,7.40
2018-02-04T14:51:29.894Z,7.40
2018-02-04T14:53:57.554Z,7.80
2018-02-04T14:56:25.042Z,7.50
2018-02-04T14:58:51.252Z,7.50
2018-02-04T15:01:17.583Z,7.40
2018-02-04T15:03:43.945Z,7.20
2018-02-04T15:06:11.331Z,7.20
2018-02-04T15:08:37.998Z,7.40
2018-02-04T15:11:04.271Z,7.40
2018-02-04T15:13:30.553Z,7.50
2018-02-04T15:15:57.350Z,7.40
2018-02-04T15:18:23.664Z,7.40
2018-02-04T15:20:49.967Z,7.40
2018-02-04T15:23:16.250Z,7.20
2018-02-04T15:25:43.309Z,7.20
2018-02-04T15:28:09.600Z,7.20
2018-02-04T15:30:36.837Z,7.10
2018-02-04T15:33:03.153Z,7.20
2018-02-04T15:35:29.543Z,7.10
2018-02-04T15:37:55.921Z,7.00
2018-02-04T15:40:22.552Z,7.00
2018-02-04T15:42:48.844Z,6.70
2018-02-04T15:45:15.123Z,6.50
2018-02-04T15:47:41.553Z,6.50
2018-02-04T15:50:07.900Z,6.50
2018-02-04T15:52:34.210Z,6.60
2018-02-04T15:55:00.494Z,6.50
2018-02-04T15:57:26.838Z,6.50
2018-02-04T15:59:54.122Z,6.40
2018-02-04T16:02:20.423Z,6.40
2018-02-04T16:04:46.696Z,6.30
2018-02-04T16:07:12.997Z,6.30
2018-02-04T16:09:39.328Z,6.30
2018-02-04T16:12:05.661Z,6.30
2018-02-04T16:14:31.962Z,6.30
2018-02-04T16:16:58.335Z,6.30
2018-02-04T16:19:24.612Z,6.30
2018-02-04T16:21:50.946Z,6.10
2018-02-04T16:24:17.260Z,6.10
2018-02-04T16:26:43.686Z,6.00
2018-02-04T16:29:10.018Z,6.00
2018-02-04T16:31:36.303Z,5.90
2018-02-04T16:34:02.703Z,5.90
2018-02-04T16:36:28.979Z,5.80
2018-02-04T16:38:56.149Z,5.70
2018-02-04T16:41:23.280Z,5.50
2018-02-04T16:43:49.935Z,5.40
2018-02-04T16:46:16.311Z,5.30
2018-02-04T16:48:43.180Z,5.20
2018-02-04T16:51:09.635Z,5.10
2018-02-04T16:53:36.070Z,5.00
2018-02-04T16:56:02.388Z,5.00
2018-02-04T16:58:28.690Z,4.90
2018-02-04T17:00:55.404Z,4.70
2018-02-04T17:03:22.080Z,4.80
2018-02-04T17:05:48.784Z,4.50
2018-02-04T17:08:15.138Z,4.60
2018-02-04T17:10:41.830Z,4.30
2018-02-04T17:13:09.231Z,4.30
2018-02-04T17:15:35.903Z,4.20
2018-02-04T17:18:02.344Z,4.20
2018-02-04T17:20:28.711Z,4.20
2018-02-04T17:22:55.006Z,4.10
2018-02-04T17:25:21.340Z,4.10
2018-02-04T17:27:47.613Z,4.00
2018-02-04T17:30:14.001Z,3.90
2018-02-04T17:32:41.423Z,3.90
2018-02-04T17:35:08.606Z,3.90
2018-02-04T17:37:34.889Z,3.80
2018-02-04T17:40:01.636Z,3.70
2018-02-04T17:42:27.988Z,3.70
2018-02-04T17:44:54.381Z,3.70
2018-02-04T17:47:20.772Z,3.60
2018-02-04T17:49:47.641Z,3.60
2018-02-04T17:52:14.094Z,3.50
2018-02-04T17:54:40.818Z,3.50
2018-02-04T17:57:07.571Z,3.50
2018-02-04T17:59:34.285Z,3.50
2018-02-04T18:02:00.612Z,3.50
2018-02-04T18:04:26.967Z,3.60
2018-02-04T18:06:54.917Z,3.50
2018-02-04T18:09:21.198Z,3.40
2018-02-04T18:11:47.596Z,3.30
2018-02-04T18:14:13.930Z,3.20
2018-02-04T18:16:41.213Z,3.20
2018-02-04T18:19:07.572Z,3.10
2018-02-04T18:21:33.963Z,3.00
2018-02-04T18:24:00.625Z,3.00
2018-02-04T18:26:26.915Z,3.00
2018-02-04T18:28:53.638Z,3.00
2018-02-04T18:31:19.959Z,3.00
2018-02-04T18:33:46.264Z,2.90
2018-02-04T18:36:12.591Z,2.80
2018-02-04T18:38:38.864Z,2.80
2018-02-04T18:41:05.504Z,2.70
2018-02-04T18:43:31.821Z,2.60
2018-02-04T18:45:58.182Z,2.60
2018-02-04T18:48:24.483Z,2.60
2018-02-04T18:50:50.792Z,2.50
2018-02-04T18:53:17.074Z,2.50
2018-02-04T18:55:43.788Z,2.50
2018-02-04T18:58:10.228Z,2.50
2018-02-04T19:00:37.536Z,2.40
2018-02-04T19:03:04.044Z,2.40
2018-02-04T19:05:30.694Z,2.40
2018-02-04T19:07:57.914Z,2.30
2018-02-04T19:10:24.592Z,2.20
2018-02-04T19:12:50.916Z,2.20
2018-02-04T19:15:17.273Z,2.30
2018-02-04T19:17:43.629Z,2.30
2018-02-04T19:20:10.019Z,2.30
2018-02-04T19:22:36.359Z,2.30
2018-02-04T19:25:02.707Z,2.20
2018-02-04T19:27:29.012Z,2.30
2018-02-04T19:29:55.302Z,2.20
2018-02-04T19:32:22.158Z,2.20
2018-02-04T19:34:48.776Z,2.00
2018-02-04T19:37:15.183Z,2.00
2018-02-04T19:39:41.605Z,2.00
2018-02-04T19:42:07.918Z,2.00
2018-02-04T19:44:34.224Z,2.00
2018-02-04T19:47:00.960Z,2.10
2018-02-04T19:49:27.546Z,2.10
2018-02-04T19:51:53.797Z,2.10
2018-02-04T19:54:20.116Z,2.00
2018-02-04T19:56:46.494Z,1.90
2018-02-04T19:59:12.900Z,2.00
2018-02-04T20:01:39.369Z,1.90
2018-02-04T20:04:05.709Z,1.90
2018-02-04T20:06:32.103Z,1.90
2018-02-04T20:08:58.796Z,1.80
2018-02-04T20:11:25.080Z,1.80
2018-02-04T20:13:51.744Z,1.80
2018-02-04T20:16:18.089Z,1.80
2018-02-04T20:18:44.499Z,1.70
2018-02-04T20:21:10.862Z,1.70
2018-02-04T20:23:37.147Z,1.60
2018-02-04T20:26:04.048Z,1.60
2018-02-04T20:28:30.392Z,1.60
2018-02-04T20:30:56.680Z,1.50
2018-02-04T20:33:23.148Z,1.50
2018-02-04T20:35:49.558Z,1.40
2018-02-04T20:38:15.905Z,1.40
2018-02-04T20:40:42.241Z,1.40
2018-02-04T20:43:08.837Z,1.40
2018-02-04T20:45:35.201Z,1.30
2018-02-04T20:48:01.479Z,1.30
2018-02-04T20:50:27.808Z,1.30
2018-02-04T20:52:54.166Z,1.40
2018-02-04T20:55:20.522Z,1.50
2018-02-04T20:57:46.839Z,1.50
2018-02-04T21:00:13.173Z,1.40
2018-02-04T21:02:39.613Z,1.40
2018-02-04T21:05:05.958Z,1.40
2018-02-04T21:07:32.251Z,1.40
2018-02-04T21:09:58.623Z,1.40
2018-02-04T21:12:25.728Z,1.40
2018-02-04T21:14:52.038Z,1.40
2018-02-04T21:17:18.370Z,1.30
2018-02-04T21:19:44.659Z,1.40
2018-02-04T21:22:12.064Z,1.40
2018-02-04T21:24:38.338Z,1.40
2018-02-04T21:27:04.673Z,1.40
2018-02-04T21:29:31.064Z,1.30
2018-02-04T21:31:57.436Z,1.20
2018-02-04T21:34:24.101Z,1.20
2018-02-04T21:36:50.760Z,1.20
2018-02-04T21:39:17.052Z,1.20
2018-02-04T21:41:43.739Z,1.30
2018-02-04T21:44:10.027Z,1.30
2018-02-04T21:46:36.406Z,1.30
2018-02-04T21:49:02.826Z,1.50
2018-02-04T21:51:29.170Z,1.60
2018-02-04T21:53:55.501Z,1.70
2018-02-04T21:56:21.901Z,1.80
2018-02-04T21:58:48.222Z,1.90
2018-02-04T22:01:14.588Z,1.80
2018-02-04T22:03:40.978Z,1.90
2018-02-04T22:06:07.696Z,1.90
2018-02-04T22:08:33.966Z,1.90
2018-02-04T22:11:00.280Z,1.90
2018-02-04T22:13:26.914Z,2.00
2018-02-04T22:15:53.497Z,2.10
2018-02-04T22:18:19.833Z,2.10
2018-02-04T22:20:46.195Z,2.10
2018-02-04T22:23:12.581Z,2.20
2018-02-04T22:25:38.811Z,2.10
2018-02-04T22:28:05.088Z,2.20
2018-02-04T22:30:31.393Z,2.00
2018-02-04T22:32:57.674Z,1.90
2018-02-04T22:35:23.928Z,2.10
2018-02-04T22:37:50.208Z,2.20
2018-02-04T22:40:16.907Z,2.10
2018-02-04T22:42:43.145Z,2.10
2018-02-04T22:45:09.397Z,2.20
2018-02-04T22:47:35.656Z,2.20
2018-02-04T22:50:01.981Z,2.10
2018-02-04T22:52:28.265Z,2.00
2018-02-04T22:54:54.513Z,2.10
2018-02-04T22:57:20.799Z,2.10
2018-02-04T22:59:47.362Z,2.10
2018-02-04T23:02:13.619Z,2.10
2018-02-04T23:04:40.348Z,2.20
2018-02-04T23:07:06.645Z,2.20
2018-02-04T23:09:32.901Z,2.20
2018-02-04T23:11:59.193Z,2.20
2018-02-04T23:14:25.487Z,2.10
2018-02-04T23:16:52.162Z,2.10
2018-02-04T23:19:18.420Z,2.10
2018-02-04T23:21:44.711Z,2.00
2018-02-04T23:24:11.018Z,2.00
2018-02-04T23:26:37.382Z,2.00
2018-02-04T23:29:03.609Z,2.10
2018-02-04T23:31:29.822Z,2.00
2018-02-04T23:33:56.037Z,1.90
2018-02-04T23:36:22.296Z,1.80
2018-02-04T23:38:48.557Z,1.80
2018-02-04T23:41:14.800Z,1.70
2018-02-04T23:43:41.396Z,1.90
2018-02-04T23:46:07.690Z,1.90
2018-02-04T23:48:33.941Z,1.80
2018-02-04T23:51:00.182Z,1.80
2018-02-04T23:53:26.484Z,1.80
2018-02-04T23:55:52.796Z,1.80
2018-02-04T23:58:19.404Z,1.80
